Paonia, CO

12:47 PM MDT on September 01, 2014 (GMT -0600)
Lamborn Mesa | Change Station
CLOSE
Current Station
Personal Weather Station
Location: Paonia, CO
Elevation: 5900 ft
Nearby Weather Stations

Elev 5900 ft 38.86 °N, 107.59 °W | Updated 8 minutes ago

Clear
Clear
79.0 °F
Feels Like 78 °F
N
4.0
Wind Variable Wind from SSW
Gusts 8.1 mph

Today
High -- | Low -- °F
--% Chance of Precip.
Yesterday
High -- | Low -- °F
Precip. -- in
6:39 AM 7:40 PM
Waxing Crescent, 43% visible
Pressure 30.08 in
Visibility 7.0 miles
Clouds Clear
Heat Index 78 °F
Dew Point 38 °F
Humidity 23%
Rainfall -999.00 in
Snow Depth 0 in , 0 in
UV 10 out of 12
Pollen 9.60 out of 12
Air Quality Not available.
Flu Activity Not available.
METAR KAJZ 011835Z AUTO 16006KT 7SM CLR 27/01 A3008 RMK AO2 T02680014

More Conditions Fewer Conditions

Pressure 30.08 in
Visibility 7.0 miles
Clouds Clear
Heat Index 78 °F
Dew Point 38 °F
Humidity 23%
Rainfall -999.00 in
Snow Depth 0 in , 0 in
UV 10 out of 12
Pollen 9.60 out of 12
Air Quality Not available.
Flu Activity Not available.
METAR KAJZ 011835Z AUTO 16006KT 7SM CLR 27/01 A3008 RMK AO2 T02680014

More Conditions Fewer Conditions

10-Day Weather Forecast

Almanac

Astronomy

Sep. 01, 2014 Rise Set
Actual Time 6:39 AM MDT 7:40 PM MDT
Civil Twilight 6:12 AM MDT 8:07 PM MDT
Nautical Twilight 5:39 AM MDT 8:40 PM MDT
Astronomical Twilight 5:05 AM MDT 9:13 PM MDT
Moon 1:24 PM MDT 11:48 PM MDT
Length of Visible Light 13h 55m
Length of Day
13h 01m
Tomorrow will be 2m 26s shorter.
Waxing Crescent, 43% of the Moon is Illuminated
Today
Waxing Crescent
Sep 2
First Quarter
Sep 8
Full
Sep 15
Last Quarter
Sep 24
New

Today's Extremes

State Highs State Lows

Community

WunderPhotos

Upload Photos

1,749,359 photos uploaded!

Nearby

Snow Depth

Station Depth Elevation
Overland Reservoir 0 in 9880 ft
Park Reservoir 0 in 9960 ft
McClure Pass 2 in 9500 ft
North Lost Trail 0 in 9200 ft
Independence Pass 187 in 10600 ft

Earthquake Activity

City Distance Mag. Time & Date
No recent earthquake activity has been reported nearby.
Minimum magnitude displayed is 2.5.

Coastal Water Temperatures

Place Temperature
No Stations Reporting

Nearby Weather Stations